Time;durP1;ratioP1;P1;durP2;ratioP2;P2;SDS_P1;SDS_P2;PMS_P1;PMS_P2;Temp;Humidity;BMP_temperature;BMP_pressure;BME280_temperature;BME280_humidity;BME280_pressure;Samples;Min_cycle;Max_cycle;Signal;HPM_P1;HPM_P2
2020/12/12 00:01:54;;;;;;;57.47;30.43;;;;;;;-144.99;99.98;52570.38;5043093;28;20771;-68
2020/12/12 00:04:21;;;;;;;72.47;35.00;;;;;;;-144.99;100.00;52545.94;5041992;28;20746;-68
2020/12/12 00:06:47;;;;;;;51.20;29.37;;;;;;;-144.99;100.00;52550.00;5044573;28;20674;-69
2020/12/12 00:09:15;;;;;;;63.70;35.93;;;;;;;-144.99;100.00;52578.53;5038199;28;20692;-68
2020/12/12 00:11:41;;;;;;;55.00;29.60;;;;;;;-144.99;100.00;52574.47;5039264;28;20628;-68
2020/12/12 00:14:07;;;;;;;55.83;28.53;;;;;;;-144.99;100.00;52529.63;5041331;28;20779;-68
2020/12/12 00:16:36;;;;;;;53.73;29.50;;;;;;;-144.99;99.74;52566.31;5041005;28;20635;-68
2020/12/12 00:19:02;;;;;;;58.30;30.10;;;;;;;-144.99;100.00;52543.91;5039919;28;21023;-67
2020/12/12 00:21:29;;;;;;;48.97;30.07;;;;;;;-144.99;99.99;52552.03;5038357;28;20862;-69
2020/12/12 00:23:55;;;;;;;63.20;34.60;;;;;;;-144.99;100.00;52586.69;5039313;28;20722;-69
2020/12/12 00:26:25;;;;;;;62.23;32.17;;;;;;;-144.99;100.00;52554.09;5040074;28;20664;-68
2020/12/12 00:28:53;;;;;;;56.87;31.60;;;;;;;-144.99;100.00;52545.94;5040124;28;20712;-67
2020/12/12 00:31:20;;;;;;;64.47;33.47;;;;;;;-144.99;100.00;52574.47;5032887;28;21074;-68
2020/12/12 00:33:47;;;;;;;57.87;31.87;;;;;;;-144.99;100.00;52539.81;5043916;28;20670;-70
2020/12/12 00:36:13;;;;;;;53.00;30.17;;;;;;;-144.99;100.00;52529.63;5034193;28;20719;-68
2020/12/12 00:38:41;;;;;;;51.53;28.00;;;;;;;-144.99;100.00;52558.16;5045161;28;20724;-70
2020/12/12 00:41:07;;;;;;;54.73;30.13;;;;;;;-144.99;100.00;52550.00;5046408;28;20675;-69
2020/12/12 00:43:35;;;;;;;58.07;30.07;;;;;;;-144.99;100.00;52562.25;5033699;28;20711;-70
2020/12/12 00:46:01;;;;;;;64.63;34.73;;;;;;;-144.99;100.00;52574.47;5045586;28;20727;-69
2020/12/12 00:48:27;;;;;;;57.87;29.93;;;;;;;-144.99;100.00;52588.75;5051969;28;21265;-70
2020/12/12 00:50:54;;;;;;;61.47;29.83;;;;;;;-144.99;100.00;52545.94;5046450;28;20664;-69
2020/12/12 00:53:20;;;;;;;62.47;30.57;;;;;;;-144.99;100.00;52566.31;5037341;28;20683;-68
2020/12/12 00:55:47;;;;;;;75.67;35.00;;;;;;;-144.99;100.00;52562.25;5046978;28;20662;-69
2020/12/12 00:58:13;;;;;;;59.20;32.57;;;;;;;-144.99;100.00;52517.41;5042377;28;20746;-70
2020/12/12 01:00:39;;;;;;;63.37;36.97;;;;;;;-144.99;100.00;52527.59;5043824;28;20658;-69
2020/12/12 01:03:06;;;;;;;62.97;30.77;;;;;;;-144.99;100.00;52509.25;5042592;28;21252;-69
2020/12/12 01:05:32;;;;;;;63.40;32.07;;;;;;;-144.99;100.00;52558.16;5038668;28;20673;-68
2020/12/12 01:07:58;;;;;;;54.83;30.63;;;;;;;-144.99;99.97;52554.09;5032171;28;20754;-69
2020/12/12 01:10:24;;;;;;;70.33;35.53;;;;;;;-144.99;100.00;52566.31;5037974;28;20760;-69
2020/12/12 01:12:52;;;;;;;69.03;30.67;;;;;;;-144.99;100.00;52533.69;5042065;28;20726;-68
2020/12/12 01:15:18;;;;;;;60.53;32.87;;;;;;;-144.99;100.00;52566.31;5036006;28;20692;-69
2020/12/12 01:17:44;;;;;;;78.57;37.67;;;;;;;-144.99;99.95;52501.09;5041470;28;20642;-69
2020/12/12 01:20:13;;;;;;;69.73;38.57;;;;;;;-144.99;99.83;52529.63;5046318;28;20718;-68
2020/12/12 01:22:39;;;;;;;53.23;31.13;;;;;;;-144.99;99.88;52578.53;5036320;28;20763;-69
2020/12/12 01:25:05;;;;;;;69.07;31.03;;;;;;;-144.99;99.94;52541.84;5043482;28;21147;-68
2020/12/12 01:27:32;;;;;;;53.87;31.57;;;;;;;-144.99;99.72;52562.25;5044110;28;20727;-68
2020/12/12 01:29:58;;;;;;;82.47;35.97;;;;;;;-144.99;100.00;52550.00;5041726;28;20634;-68
2020/12/12 01:32:25;;;;;;;67.70;35.70;;;;;;;-144.99;100.00;52550.00;4695405;28;10000007;-69
2020/12/12 01:34:51;;;;;;;51.87;30.90;;;;;;;-144.99;99.93;52539.81;5030613;28;20309;-68
2020/12/12 01:37:17;;;;;;;64.13;34.00;;;;;;;-144.99;99.51;52519.44;5034850;28;20814;-67
2020/12/12 01:39:43;;;;;;;70.23;30.97;;;;;;;-144.99;99.72;52558.16;5036986;28;20684;-68
2020/12/12 01:42:09;;;;;;;56.30;29.40;;;;;;;-144.99;99.56;52556.13;5032371;28;20705;-68
2020/12/12 01:44:35;;;;;;;72.10;34.17;;;;;;;-144.99;99.90;52523.50;5043994;28;20747;-69
2020/12/12 01:47:02;;;;;;;59.73;32.07;;;;;;;-144.99;99.76;52499.06;5039718;28;21272;-69
2020/12/12 01:49:29;;;;;;;54.77;29.57;;;;;;;-144.99;99.67;52570.38;5053632;28;20660;-69
2020/12/12 01:51:55;;;;;;;49.77;30.97;;;;;;;-144.99;99.44;52519.44;5051103;28;21107;-70
2020/12/12 01:54:21;;;;;;;61.63;33.97;;;;;;;-144.99;99.50;52556.13;5045384;28;20718;-69
2020/12/12 01:56:50;;;;;;;57.20;31.80;;;;;;;-144.99;99.65;52556.13;5036622;28;20682;-70
2020/12/12 01:59:16;;;;;;;56.67;31.03;;;;;;;-144.99;99.68;52543.91;5045208;28;21234;-68
2020/12/12 02:01:45;;;;;;;67.73;31.00;;;;;;;-144.99;99.72;52554.09;5034949;28;20668;-68
2020/12/12 02:04:18;;;;;;;55.60;29.60;;;;;;;-144.99;99.50;52529.63;5041793;28;20694;-68
2020/12/12 02:06:45;;;;;;;51.17;29.20;;;;;;;-144.99;99.45;52594.84;5041773;28;20686;-68
2020/12/12 02:09:14;;;;;;;58.93;33.27;;;;;;;-144.99;99.78;52554.09;5040424;28;20593;-69
2020/12/12 02:11:41;;;;;;;50.67;29.63;;;;;;;-144.99;99.46;52545.94;5034704;28;20621;-68
2020/12/12 02:14:10;;;;;;;49.17;29.00;;;;;;;-144.99;99.32;52562.25;5039887;28;21295;-69
2020/12/12 02:16:51;;;;;;;63.40;30.50;;;;;;;-144.99;99.51;52541.84;5038757;28;20671;-69
2020/12/12 02:19:18;;;;;;;42.83;25.07;;;;;;;-144.99;99.53;52582.63;5036350;28;20633;-69
2020/12/12 02:21:52;;;;;;;54.87;33.03;;;;;;;-144.99;99.45;52537.78;5045694;28;20632;-69
2020/12/12 02:24:19;;;;;;;66.40;30.37;;;;;;;-144.99;99.50;52541.84;5041389;28;20667;-68
2020/12/12 02:26:45;;;;;;;48.30;27.57;;;;;;;-144.99;99.56;52586.69;5037066;28;20760;-69
2020/12/12 02:29:11;;;;;;;52.07;32.27;;;;;;;-144.99;99.67;52521.47;5042736;28;20723;-68
2020/12/12 02:31:38;;;;;;;58.87;30.40;;;;;;;-144.99;99.43;52566.31;5040710;28;20966;-68
2020/12/12 02:34:05;;;;;;;53.03;30.60;;;;;;;-144.99;99.34;52564.28;5036412;28;20670;-69
2020/12/12 02:36:34;;;;;;;56.90;31.23;;;;;;;-144.99;99.22;52554.09;5038993;28;21068;-68
2020/12/12 02:39:02;;;;;;;60.13;31.70;;;;;;;-144.99;99.24;52492.94;5041848;28;20636;-68
2020/12/12 02:41:28;;;;;;;50.43;32.03;;;;;;;-144.99;99.09;52541.84;5044416;28;21086;-69
2020/12/12 02:43:54;;;;;;;47.13;29.03;;;;;;;-144.99;99.20;52545.94;5033931;28;20853;-69
2020/12/12 02:46:20;;;;;;;51.57;29.93;;;;;;;-144.99;99.24;52529.63;5043028;28;20628;-69
2020/12/12 02:48:47;;;;;;;48.47;29.47;;;;;;;-144.99;99.05;52572.44;5060943;28;20713;-67
2020/12/12 02:51:15;;;;;;;55.60;31.50;;;;;;;-144.99;99.03;52550.00;5053932;28;20623;-67
2020/12/12 02:53:42;;;;;;;47.60;28.27;;;;;;;-144.99;98.99;52558.16;5042357;28;20635;-69
2020/12/12 02:56:09;;;;;;;53.23;31.37;;;;;;;-144.99;99.06;52570.38;5047337;28;20628;-69
2020/12/12 02:58:35;;;;;;;53.70;30.87;;;;;;;-144.99;98.82;52566.31;5042794;28;20723;-70
2020/12/12 03:01:01;;;;;;;50.73;29.13;;;;;;;-144.99;98.89;52550.00;5048206;28;21249;-68
2020/12/12 03:03:27;;;;;;;44.70;28.93;;;;;;;-144.99;98.75;52578.53;5036419;28;21205;-68
2020/12/12 03:05:54;;;;;;;55.67;30.80;;;;;;;-144.99;98.82;52533.69;5048822;28;20631;-68
2020/12/12 03:08:20;;;;;;;62.47;33.37;;;;;;;-144.99;99.24;52586.69;5050006;28;21241;-68
2020/12/12 03:10:46;;;;;;;53.57;30.03;;;;;;;-144.99;98.75;52533.69;5044012;28;20651;-68
2020/12/12 03:13:13;;;;;;;65.77;33.47;;;;;;;-144.99;98.84;52531.66;5047145;28;20717;-68
2020/12/12 03:15:39;;;;;;;55.87;32.10;;;;;;;-144.99;98.94;52545.94;5039157;28;20660;-68
2020/12/12 03:18:05;;;;;;;54.53;27.30;;;;;;;-144.99;98.96;52570.38;5048028;28;20755;-68
2020/12/12 03:20:32;;;;;;;50.30;31.10;;;;;;;-144.99;98.82;52578.53;5045286;28;20780;-67
2020/12/12 03:22:58;;;;;;;47.07;29.60;;;;;;;-144.99;98.84;52558.16;5044836;28;21181;-68
2020/12/12 03:25:24;;;;;;;57.77;34.13;;;;;;;-144.99;98.56;52562.25;5031990;28;20693;-68
2020/12/12 03:27:50;;;;;;;50.47;29.63;;;;;;;-144.99;98.64;52529.63;5047416;28;21768;-68
2020/12/12 03:30:17;;;;;;;52.00;31.03;;;;;;;-144.99;98.47;52562.25;5041658;28;20621;-68
2020/12/12 03:32:43;;;;;;;49.83;28.33;;;;;;;-144.99;98.52;52586.69;5040289;28;20690;-69
2020/12/12 03:35:09;;;;;;;48.23;27.73;;;;;;;-144.99;98.92;52550.00;5044354;28;21031;-68
2020/12/12 03:37:35;;;;;;;46.47;29.57;;;;;;;-144.99;98.72;52582.63;5044695;28;20634;-68
2020/12/12 03:40:02;;;;;;;62.67;32.77;;;;;;;-144.99;98.77;52588.75;5039870;28;20640;-69
2020/12/12 03:42:28;;;;;;;56.50;33.67;;;;;;;-144.99;99.01;52541.84;5043293;28;20619;-69
2020/12/12 03:44:54;;;;;;;57.53;32.33;;;;;;;-144.99;98.92;52543.91;5039905;28;20664;-68
2020/12/12 03:47:21;;;;;;;64.23;36.20;;;;;;;-144.99;98.98;52523.50;5040151;28;20709;-69
2020/12/12 03:49:48;;;;;;;51.03;29.27;;;;;;;-144.99;98.70;52554.09;5052416;28;20622;-69
2020/12/12 03:52:15;;;;;;;61.30;32.00;;;;;;;-144.99;98.63;52533.69;5039626;28;20729;-69
2020/12/12 03:54:41;;;;;;;63.30;36.00;;;;;;;-144.99;98.66;52541.84;5049166;28;20670;-69
2020/12/12 03:57:07;;;;;;;50.23;28.47;;;;;;;-144.99;98.59;52541.84;5043348;28;20735;-69
2020/12/12 03:59:33;;;;;;;54.13;29.43;;;;;;;-144.99;98.52;52603.00;5049939;28;20623;-69
2020/12/12 04:01:59;;;;;;;52.27;30.40;;;;;;;-144.99;98.80;52554.09;5034951;28;20666;-69
2020/12/12 04:04:26;;;;;;;64.33;38.17;;;;;;;-144.99;99.41;52541.84;5043712;28;20770;-68
2020/12/12 04:06:53;;;;;;;72.83;35.87;;;;;;;-144.99;98.94;52552.03;5042886;28;21198;-69
2020/12/12 04:09:19;;;;;;;50.10;28.40;;;;;;;-144.99;98.70;52568.34;5036406;28;20655;-68
2020/12/12 04:11:45;;;;;;;56.10;30.50;;;;;;;-144.99;98.89;52570.38;5044900;28;21260;-68
2020/12/12 04:14:11;;;;;;;64.33;36.63;;;;;;;-144.99;99.05;52527.59;5046194;28;20675;-67
2020/12/12 04:16:37;;;;;;;51.57;30.00;;;;;;;-144.99;98.75;52572.44;5039683;28;20648;-68
2020/12/12 04:19:03;;;;;;;58.67;35.33;;;;;;;-144.99;99.01;52578.53;5043174;28;20645;-68
2020/12/12 04:21:30;;;;;;;66.50;36.83;;;;;;;-144.99;99.04;52586.69;5046547;28;20657;-67
2020/12/12 04:23:56;;;;;;;72.10;35.57;;;;;;;-144.99;99.11;52568.34;5042367;28;21269;-68
2020/12/12 04:26:24;;;;;;;47.40;33.00;;;;;;;-144.99;98.93;52545.94;5035630;28;20723;-67
2020/12/12 04:28:50;;;;;;;57.70;29.40;;;;;;;-144.99;98.60;52562.25;5041024;28;20633;-68
2020/12/12 04:31:16;;;;;;;56.00;32.27;;;;;;;-144.99;98.61;52562.25;5047229;28;21257;-68
2020/12/12 04:33:42;;;;;;;58.37;31.57;;;;;;;-144.99;98.75;52545.94;5045869;28;20663;-68
2020/12/12 04:36:09;;;;;;;57.43;31.20;;;;;;;-144.99;98.98;52533.69;5042988;28;21053;-68
2020/12/12 04:38:36;;;;;;;61.30;33.90;;;;;;;-144.99;98.79;52568.34;5044554;28;21068;-68
2020/12/12 04:41:03;;;;;;;55.47;30.73;;;;;;;-144.99;98.68;52558.16;5049592;28;20655;-68
2020/12/12 04:43:30;;;;;;;55.10;32.70;;;;;;;-144.99;98.72;52576.50;5047268;28;20620;-68
2020/12/12 04:45:58;;;;;;;51.83;29.00;;;;;;;-144.99;98.59;52607.09;5047972;28;20662;-67
2020/12/12 04:48:24;;;;;;;49.17;30.17;;;;;;;-144.99;98.90;52558.16;5055017;28;20654;-67
2020/12/12 04:50:50;;;;;;;61.37;34.00;;;;;;;-144.99;99.10;52578.53;5044999;28;20638;-67
2020/12/12 04:53:18;;;;;;;64.20;31.07;;;;;;;-144.99;98.91;52607.09;5046190;28;20651;-68
2020/12/12 04:55:47;;;;;;;59.57;29.70;;;;;;;-144.99;98.81;52550.00;5050730;28;20750;-67
2020/12/12 04:58:15;;;;;;;65.03;28.67;;;;;;;-144.99;98.82;52547.97;5049953;28;20616;-68
2020/12/12 05:00:46;;;;;;;56.20;30.30;;;;;;;-144.99;98.90;52590.78;5041025;28;20656;-68
2020/12/12 05:03:14;;;;;;;50.20;28.87;;;;;;;-144.99;98.94;52558.16;5041145;28;20714;-68
2020/12/12 05:05:41;;;;;;;56.87;29.77;;;;;;;-144.99;99.35;52568.34;5047865;28;20698;-68
2020/12/12 05:08:08;;;;;;;71.23;33.33;;;;;;;-144.99;99.48;52537.78;5041160;28;20670;-67
2020/12/12 05:10:39;;;;;;;63.07;35.63;;;;;;;-144.99;99.43;52550.00;5038770;28;20632;-68
2020/12/12 05:13:25;;;;;;;72.10;35.87;;;;;;;-144.99;99.56;52562.25;5045356;28;20656;-69
2020/12/12 05:15:53;;;;;;;69.33;35.93;;;;;;;-144.99;99.57;52537.78;5036748;28;20632;-67
2020/12/12 05:18:20;;;;;;;54.53;33.40;;;;;;;-144.99;99.20;52570.38;5041029;28;20657;-70
2020/12/12 05:20:46;;;;;;;56.90;31.13;;;;;;;-144.99;99.10;52558.16;5041733;28;20664;-67
2020/12/12 05:23:13;;;;;;;61.10;33.27;;;;;;;-144.99;99.12;52598.94;5047751;28;20652;-67
2020/12/12 05:25:41;;;;;;;57.27;30.77;;;;;;;-144.99;99.12;52615.25;5049129;28;20687;-67
2020/12/12 05:28:09;;;;;;;66.87;33.70;;;;;;;-144.99;99.16;52554.09;5042941;28;20656;-69
2020/12/12 05:30:37;;;;;;;67.27;34.40;;;;;;;-144.99;99.28;52550.00;5041330;28;20620;-69
2020/12/12 05:33:04;;;;;;;54.57;33.10;;;;;;;-144.99;99.09;52529.63;5040834;28;21025;-69
2020/12/12 05:35:30;;;;;;;59.50;31.47;;;;;;;-144.99;99.09;52554.09;5043484;28;21149;-67
2020/12/12 05:37:58;;;;;;;59.50;31.93;;;;;;;-144.99;99.09;52525.56;5042677;28;20670;-68
2020/12/12 05:40:24;;;;;;;81.20;40.37;;;;;;;-144.99;99.50;52566.31;5046848;28;20647;-68
2020/12/12 05:42:50;;;;;;;65.67;35.57;;;;;;;-144.99;99.69;52564.28;5039387;28;20734;-68
2020/12/12 05:45:16;;;;;;;63.20;29.63;;;;;;;-144.99;99.60;52497.00;5039926;28;20754;-68
2020/12/12 05:47:43;;;;;;;56.40;31.70;;;;;;;-144.99;98.98;52566.31;5041794;28;21068;-67
2020/12/12 05:50:11;;;;;;;58.13;34.23;;;;;;;-144.99;99.21;52554.09;5056010;28;20623;-68
2020/12/12 05:52:39;;;;;;;63.33;37.47;;;;;;;-144.99;99.22;52574.47;5047283;28;20636;-67
2020/12/12 05:55:06;;;;;;;52.13;29.43;;;;;;;-144.99;99.15;52570.38;5051128;28;20889;-66
2020/12/12 05:57:33;;;;;;;54.57;33.27;;;;;;;-144.99;99.36;52547.97;5041086;28;20709;-67
2020/12/12 06:00:02;;;;;;;59.93;33.93;;;;;;;-144.99;99.61;52533.69;5040891;28;20680;-68
2020/12/12 06:02:30;;;;;;;63.23;31.07;;;;;;;-144.99;99.27;52547.97;5042988;28;21043;-67
2020/12/12 06:05:03;;;;;;;76.50;38.33;;;;;;;-144.99;99.86;52537.78;5047470;28;20671;-68
2020/12/12 06:07:31;;;;;;;70.07;35.87;;;;;;;-144.99;99.67;52547.97;5033123;28;21056;-67
2020/12/12 06:09:59;;;;;;;55.17;33.33;;;;;;;-144.99;99.83;52582.63;5042908;28;20775;-67
2020/12/12 06:12:26;;;;;;;58.87;31.93;;;;;;;-144.99;99.61;52586.69;5045237;28;20616;-67
2020/12/12 06:14:54;;;;;;;64.13;31.17;;;;;;;-144.99;99.69;52558.16;5045260;28;21247;-67
2020/12/12 06:17:29;;;;;;;59.70;36.27;;;;;;;-144.99;99.86;52566.31;5041172;28;20627;-67
2020/12/12 06:19:59;;;;;;;65.27;36.10;;;;;;;-144.99;99.95;52554.09;5039159;28;20731;-67
2020/12/12 06:22:26;;;;;;;71.20;35.83;;;;;;;-144.99;100.00;52582.63;5049259;28;21188;-69
2020/12/12 06:24:59;;;;;;;71.30;30.30;;;;;;;-144.99;100.00;52590.78;5045116;28;20779;-67
2020/12/12 06:27:32;;;;;;;70.97;35.00;;;;;;;-144.99;100.00;52562.25;5052911;28;20726;-67
2020/12/12 06:30:02;;;;;;;63.33;31.77;;;;;;;-144.99;100.00;52568.34;5042552;28;20638;-67
2020/12/12 06:32:29;;;;;;;74.17;38.07;;;;;;;-144.99;100.00;52554.09;5044113;28;20631;-67
2020/12/12 06:34:55;;;;;;;83.67;36.73;;;;;;;-144.99;100.00;52543.91;5078861;22;20683;-73
2020/12/12 06:37:29;;;;;;;78.53;41.60;;;;;;;-144.99;100.00;52513.31;5074594;28;20705;-72
2020/12/12 06:39:57;;;;;;;64.27;35.40;;;;;;;-144.99;100.00;52537.78;5078963;28;20652;-74
2020/12/12 06:42:34;;;;;;;66.47;35.93;;;;;;;-144.99;100.00;52525.56;5072561;28;20642;-73
2020/12/12 06:45:03;;;;;;;71.00;39.73;;;;;;;-144.99;100.00;52582.63;5068921;28;20734;-74
2020/12/12 06:47:37;;;;;;;88.87;48.53;;;;;;;-144.99;100.00;52586.69;5069843;28;20638;-75
2020/12/12 06:50:08;;;;;;;57.73;31.53;;;;;;;-144.99;100.00;52558.16;5070894;28;20630;-74
2020/12/12 06:52:36;;;;;;;71.00;35.07;;;;;;;-144.99;100.00;52543.91;5072396;28;20701;-72
2020/12/12 06:55:05;;;;;;;67.97;34.23;;;;;;;-144.99;100.00;52554.09;5071215;28;20663;-74
2020/12/12 06:57:35;;;;;;;64.37;35.17;;;;;;;-144.99;100.00;52558.16;5072163;28;20621;-73
2020/12/12 07:00:01;;;;;;;82.83;44.20;;;;;;;-144.99;100.00;52574.47;5066436;28;20640;-73
2020/12/12 07:02:27;;;;;;;89.30;41.33;;;;;;;-144.99;100.00;52570.38;5063844;28;20618;-73
2020/12/12 07:04:53;;;;;;;66.30;36.83;;;;;;;-144.99;100.00;52558.16;5067802;28;20651;-73
2020/12/12 07:07:19;;;;;;;63.10;34.50;;;;;;;-144.99;100.00;52545.94;5072434;28;20642;-72
2020/12/12 07:09:46;;;;;;;72.37;32.73;;;;;;;-144.99;100.00;52545.94;5070421;28;20736;-74
2020/12/12 07:12:13;;;;;;;75.03;35.10;;;;;;;-144.99;100.00;52582.63;5071452;28;21223;-73
2020/12/12 07:14:39;;;;;;;71.20;39.20;;;;;;;-144.99;100.00;52509.25;5071303;28;20690;-73
2020/12/12 07:17:06;;;;;;;68.57;36.57;;;;;;;-144.99;100.00;52564.28;5072212;28;20700;-73
2020/12/12 07:19:34;;;;;;;83.43;39.67;;;;;;;-144.99;100.00;52586.69;5069705;28;21084;-73
2020/12/12 07:22:00;;;;;;;55.70;32.93;;;;;;;-144.99;100.00;52560.19;5067843;28;20736;-76
2020/12/12 07:24:27;;;;;;;58.40;30.43;;;;;;;-144.99;100.00;52545.94;5069927;28;20670;-77
2020/12/12 07:26:55;;;;;;;69.57;37.17;;;;;;;-144.99;100.00;52603.00;5073764;28;20603;-75
2020/12/12 07:29:21;;;;;;;71.67;38.23;;;;;;;-144.99;100.00;52533.69;5069544;28;21273;-75
2020/12/12 07:31:50;;;;;;;67.53;37.63;;;;;;;-144.99;100.00;52570.38;5068783;28;21062;-75
2020/12/12 07:34:18;;;;;;;65.70;36.23;;;;;;;-144.99;100.00;52578.53;5068485;28;20689;-75
2020/12/12 07:36:44;;;;;;;74.43;36.57;;;;;;;-144.99;100.00;52545.94;5070967;28;20631;-76
2020/12/12 07:39:11;;;;;;;76.30;38.07;;;;;;;-144.99;100.00;52513.31;5071361;28;20638;-75
2020/12/12 07:41:44;;;;;;;70.10;37.60;;;;;;;-144.99;100.00;52580.59;5071147;28;20690;-75
2020/12/12 07:44:11;;;;;;;74.83;37.97;;;;;;;-144.99;100.00;52545.94;5069370;28;20665;-74
2020/12/12 07:46:40;;;;;;;64.87;33.77;;;;;;;-144.99;100.00;52550.00;5070003;28;20706;-75
2020/12/12 07:49:07;;;;;;;65.50;32.87;;;;;;;-144.99;100.00;52558.16;5068880;28;20630;-77
2020/12/12 07:51:34;;;;;;;82.30;39.70;;;;;;;-144.99;100.00;52533.69;5069134;28;20716;-78
2020/12/12 07:54:00;;;;;;;68.37;37.97;;;;;;;-144.99;100.00;52594.84;5071692;28;20638;-76
2020/12/12 07:56:29;;;;;;;81.03;40.33;;;;;;;-144.99;100.00;52566.31;5070296;28;20631;-73
2020/12/12 07:58:59;;;;;;;70.03;37.60;;;;;;;-144.99;100.00;52550.00;5070597;28;20670;-74
2020/12/12 08:01:26;;;;;;;66.13;36.53;;;;;;;-144.99;100.00;52541.84;5064093;28;20668;-73
2020/12/12 08:03:52;;;;;;;78.60;42.47;;;;;;;-144.99;100.00;52541.84;5070024;28;20754;-75
2020/12/12 08:06:18;;;;;;;69.30;33.97;;;;;;;-144.99;100.00;52554.09;5068848;28;20627;-74
2020/12/12 08:08:53;;;;;;;85.33;44.23;;;;;;;-144.99;100.00;52576.50;5070751;28;21303;-75
2020/12/12 08:11:20;;;;;;;70.07;38.30;;;;;;;-144.99;100.00;52578.53;5070669;28;21013;-73
2020/12/12 08:13:46;;;;;;;65.57;36.27;;;;;;;-144.99;100.00;52558.16;5071188;28;21214;-75
2020/12/12 08:16:15;;;;;;;60.20;34.53;;;;;;;-144.99;100.00;52578.53;5068627;28;21211;-73
2020/12/12 08:18:42;;;;;;;80.20;35.07;;;;;;;-144.99;100.00;52590.78;5067326;28;20631;-74
2020/12/12 08:21:12;;;;;;;73.60;35.50;;;;;;;-144.99;100.00;52566.31;5070961;28;20642;-74
2020/12/12 08:23:39;;;;;;;72.10;40.60;;;;;;;-144.99;100.00;52554.09;5067717;28;20631;-74
2020/12/12 08:26:07;;;;;;;87.80;47.63;;;;;;;-144.99;100.00;52558.16;5069881;28;21072;-73
2020/12/12 08:28:34;;;;;;;85.03;39.27;;;;;;;-144.99;100.00;52533.69;5070873;28;20734;-74
2020/12/12 08:31:13;;;;;;;89.43;40.03;;;;;;;-144.99;100.00;52562.25;5075438;28;20681;-74
2020/12/12 08:33:40;;;;;;;83.77;39.03;;;;;;;-144.99;100.00;52543.91;5070673;28;20854;-73
2020/12/12 08:36:15;;;;;;;72.57;35.57;;;;;;;-144.99;100.00;52574.47;5072055;28;21069;-74
2020/12/12 08:38:50;;;;;;;66.57;33.73;;;;;;;-144.99;100.00;52578.53;5070070;28;20653;-73
2020/12/12 08:41:16;;;;;;;93.07;43.57;;;;;;;-144.99;100.00;52550.00;5073642;28;20673;-72
2020/12/12 08:43:43;;;;;;;82.73;40.20;;;;;;;-144.99;100.00;52545.94;5074677;28;20699;-73
2020/12/12 08:46:14;;;;;;;92.40;42.80;;;;;;;-144.99;100.00;52562.25;5074896;28;20806;-73
2020/12/12 08:48:40;;;;;;;91.60;42.00;;;;;;;-144.99;100.00;52574.47;5069901;28;20987;-73
2020/12/12 08:51:07;;;;;;;80.17;39.10;;;;;;;-144.99;100.00;52554.09;5077582;28;20714;-74
2020/12/12 08:53:36;;;;;;;82.60;41.23;;;;;;;-144.99;100.00;52519.44;5076325;28;20627;-74
2020/12/12 08:56:14;;;;;;;84.33;39.83;;;;;;;-144.99;100.00;52554.09;5070478;28;20753;-72
2020/12/12 08:58:43;;;;;;;91.67;42.63;;;;;;;-144.99;100.00;52560.19;5069724;28;20635;-73
2020/12/12 09:01:14;;;;;;;94.10;43.77;;;;;;;-144.99;100.00;52533.69;5070611;28;21060;-72
2020/12/12 09:03:53;;;;;;;86.83;46.30;;;;;;;-144.99;100.00;52558.16;5071636;28;20651;-73
2020/12/12 09:06:20;;;;;;;93.80;49.17;;;;;;;-144.99;100.00;52566.31;5077413;28;20764;-72
2020/12/12 09:08:47;;;;;;;63.90;33.03;;;;;;;-144.99;100.00;52541.84;5069618;28;20701;-70
2020/12/12 09:11:15;;;;;;;83.87;41.97;;;;;;;-144.99;100.00;52554.09;5070509;28;20714;-74
2020/12/12 09:13:41;;;;;;;74.00;37.23;;;;;;;-144.99;100.00;52562.25;5070510;28;20696;-73
2020/12/12 09:16:08;;;;;;;69.17;37.30;;;;;;;-144.99;100.00;52554.09;5073927;28;20654;-73
2020/12/12 09:18:43;;;;;;;67.17;36.97;;;;;;;-144.99;100.00;52533.69;5069068;28;20633;-72
2020/12/12 09:21:10;;;;;;;83.37;40.20;;;;;;;-144.99;100.00;52578.53;5068888;28;21259;-74
2020/12/12 09:23:36;;;;;;;88.20;42.50;;;;;;;-144.99;100.00;52521.47;5074160;28;20630;-74
2020/12/12 09:26:03;;;;;;;63.17;36.87;;;;;;;-144.99;100.00;52513.31;5075690;28;20663;-73
2020/12/12 09:28:30;;;;;;;80.33;42.97;;;;;;;-144.99;100.00;52501.09;5071067;28;20672;-73
2020/12/12 09:30:58;;;;;;;84.43;42.67;;;;;;;-144.99;100.00;52533.69;5073095;28;21244;-73
2020/12/12 09:33:24;;;;;;;76.23;38.90;;;;;;;-144.99;100.00;52554.09;5076146;28;20639;-75
2020/12/12 09:35:50;;;;;;;65.97;37.07;;;;;;;-144.99;100.00;52578.53;5069304;28;20704;-76
2020/12/12 09:38:16;;;;;;;74.80;42.13;;;;;;;-144.99;100.00;52554.09;5081795;28;20954;-78
2020/12/12 09:40:46;;;;;;;67.07;36.67;;;;;;;-144.99;100.00;52529.63;5074030;28;20761;-77
2020/12/12 09:43:14;;;;;;;62.37;37.23;;;;;;;-144.99;100.00;52541.84;5072489;28;20623;-77
2020/12/12 09:45:41;;;;;;;67.47;38.13;;;;;;;-144.99;100.00;52564.28;5071127;28;20728;-77
2020/12/12 09:48:07;;;;;;;74.57;39.60;;;;;;;-144.99;100.00;52545.94;5070433;28;21206;-76
2020/12/12 09:50:34;;;;;;;63.30;34.53;;;;;;;-144.99;100.00;52558.16;5070492;28;20643;-76
2020/12/12 09:53:00;;;;;;;71.03;35.83;;;;;;;-144.99;100.00;52521.47;5071900;28;20642;-77
2020/12/12 09:55:26;;;;;;;64.40;35.37;;;;;;;-144.99;100.00;52537.78;5073054;28;20660;-76
2020/12/12 09:57:52;;;;;;;74.33;38.83;;;;;;;-144.99;100.00;52545.94;5073689;28;20643;-74
2020/12/12 10:00:19;;;;;;;58.57;34.07;;;;;;;-144.99;100.00;52541.84;5069140;28;20649;-75
2020/12/12 10:02:46;;;;;;;60.97;33.60;;;;;;;-144.99;100.00;52517.41;5075571;28;20615;-76
2020/12/12 10:05:12;;;;;;;76.60;38.10;;;;;;;-144.99;100.00;52527.59;5070370;28;20697;-76
2020/12/12 10:07:38;;;;;;;72.47;38.97;;;;;;;-144.99;100.00;52521.47;5065369;28;20651;-75
2020/12/12 10:10:04;;;;;;;56.27;32.07;;;;;;;-144.99;100.00;52533.69;5069600;28;20623;-77
2020/12/12 10:12:30;;;;;;;73.37;37.57;;;;;;;-144.99;100.00;52554.09;5069930;28;20611;-75
2020/12/12 10:14:56;;;;;;;67.20;40.27;;;;;;;-144.99;100.00;52550.00;5076049;28;20644;-77
2020/12/12 10:17:23;;;;;;;71.43;41.53;;;;;;;-144.99;100.00;52525.56;5070513;28;21233;-76
2020/12/12 10:19:50;;;;;;;67.23;36.40;;;;;;;-144.99;100.00;52564.28;5071539;28;21183;-75
2020/12/12 10:22:16;;;;;;;65.00;35.90;;;;;;;-144.99;100.00;52529.63;5060145;28;20805;-75
2020/12/12 10:24:42;;;;;;;68.97;36.73;;;;;;;-144.99;100.00;52570.38;5071341;28;21027;-75
2020/12/12 10:27:08;;;;;;;67.77;36.63;;;;;;;-144.99;100.00;52560.19;5071165;28;20760;-77
2020/12/12 10:29:34;;;;;;;69.17;37.03;;;;;;;-144.99;100.00;52545.94;5071315;28;20691;-77
2020/12/12 10:32:01;;;;;;;75.77;39.80;;;;;;;-144.99;100.00;52574.47;5073342;28;20623;-76
2020/12/12 10:34:28;;;;;;;79.03;37.23;;;;;;;-144.99;100.00;52600.97;5068995;28;20708;-77
2020/12/12 10:36:54;;;;;;;67.50;38.30;;;;;;;-144.99;100.00;52550.00;5069913;28;21220;-78
2020/12/12 10:39:26;;;;;;;60.10;36.00;;;;;;;-144.99;100.00;52566.31;5070133;28;20730;-78
2020/12/12 10:41:52;;;;;;;70.03;36.90;;;;;;;-144.99;100.00;52556.13;5069659;28;20662;-78
2020/12/12 10:44:19;;;;;;;69.13;41.23;;;;;;;-144.99;100.00;52554.09;5066325;28;20694;-77
2020/12/12 10:46:45;;;;;;;71.70;38.57;;;;;;;-144.99;100.00;52558.16;5071035;28;20645;-76
2020/12/12 10:49:11;;;;;;;65.50;35.50;;;;;;;-144.99;100.00;52562.25;5061858;28;20662;-77
2020/12/12 10:51:45;;;;;;;56.40;34.33;;;;;;;-144.99;100.00;52545.94;5071449;28;21016;-77
2020/12/12 10:54:11;;;;;;;64.40;36.73;;;;;;;-144.99;100.00;52550.00;5075057;28;20645;-77
2020/12/12 10:56:37;;;;;;;57.80;34.27;;;;;;;-144.99;100.00;52519.44;5069363;28;20756;-77
2020/12/12 10:59:04;;;;;;;55.17;31.07;;;;;;;-144.99;100.00;52525.56;5069231;28;20649;-76